sensor_id;sensor_type;location;lat;lon;timestamp;P1;durP1;ratioP1;P2;durP2;ratioP2
20814;SDS011;10568;48.176;16.316;2023-04-25T00:02:17;1.40;;;1.20;;
20814;SDS011;10568;48.176;16.316;2023-04-25T00:04:44;2.27;;;1.13;;
20814;SDS011;10568;48.176;16.316;2023-04-25T00:07:11;2.60;;;0.90;;
20814;SDS011;10568;48.176;16.316;2023-04-25T00:09:37;1.30;;;1.17;;
20814;SDS011;10568;48.176;16.316;2023-04-25T00:12:03;0.80;;;0.70;;
20814;SDS011;10568;48.176;16.316;2023-04-25T00:14:29;2.90;;;1.00;;
20814;SDS011;10568;48.176;16.316;2023-04-25T00:16:55;1.20;;;0.90;;
20814;SDS011;10568;48.176;16.316;2023-04-25T00:19:21;1.53;;;1.13;;
20814;SDS011;10568;48.176;16.316;2023-04-25T00:21:46;1.40;;;1.00;;
20814;SDS011;10568;48.176;16.316;2023-04-25T00:24:12;1.37;;;1.10;;
20814;SDS011;10568;48.176;16.316;2023-04-25T00:26:38;1.20;;;1.00;;
20814;SDS011;10568;48.176;16.316;2023-04-25T00:29:04;1.60;;;1.00;;
20814;SDS011;10568;48.176;16.316;2023-04-25T00:31:30;1.60;;;1.17;;
20814;SDS011;10568;48.176;16.316;2023-04-25T00:33:55;1.23;;;1.10;;
20814;SDS011;10568;48.176;16.316;2023-04-25T00:36:21;1.70;;;1.30;;
20814;SDS011;10568;48.176;16.316;2023-04-25T00:38:47;1.37;;;1.00;;
20814;SDS011;10568;48.176;16.316;2023-04-25T00:41:13;1.70;;;1.10;;
20814;SDS011;10568;48.176;16.316;2023-04-25T00:43:38;1.67;;;1.20;;
20814;SDS011;10568;48.176;16.316;2023-04-25T00:46:05;1.60;;;1.03;;
20814;SDS011;10568;48.176;16.316;2023-04-25T00:48:31;4.53;;;1.10;;
20814;SDS011;10568;48.176;16.316;2023-04-25T00:50:57;1.20;;;1.07;;
20814;SDS011;10568;48.176;16.316;2023-04-25T00:53:24;3.77;;;1.20;;
20814;SDS011;10568;48.176;16.316;2023-04-25T00:55:51;2.20;;;1.30;;
20814;SDS011;10568;48.176;16.316;2023-04-25T01:01:05;1.17;;;1.03;;
20814;SDS011;10568;48.176;16.316;2023-04-25T01:03:32;1.30;;;1.10;;
20814;SDS011;10568;48.176;16.316;2023-04-25T01:06:00;1.40;;;1.20;;
20814;SDS011;10568;48.176;16.316;2023-04-25T01:08:27;1.43;;;0.97;;
20814;SDS011;10568;48.176;16.316;2023-04-25T01:10:53;1.30;;;1.20;;
20814;SDS011;10568;48.176;16.316;2023-04-25T01:13:18;1.97;;;1.20;;
20814;SDS011;10568;48.176;16.316;2023-04-25T01:15:45;1.50;;;1.13;;
20814;SDS011;10568;48.176;16.316;2023-04-25T01:18:10;1.40;;;0.93;;
20814;SDS011;10568;48.176;16.316;2023-04-25T01:20:37;2.43;;;1.50;;
20814;SDS011;10568;48.176;16.316;2023-04-25T01:23:04;1.33;;;1.20;;
20814;SDS011;10568;48.176;16.316;2023-04-25T01:25:31;1.60;;;1.00;;
20814;SDS011;10568;48.176;16.316;2023-04-25T01:27:57;1.87;;;1.37;;
20814;SDS011;10568;48.176;16.316;2023-04-25T01:30:25;2.20;;;1.30;;
20814;SDS011;10568;48.176;16.316;2023-04-25T01:32:54;1.47;;;1.10;;
20814;SDS011;10568;48.176;16.316;2023-04-25T01:35:21;1.77;;;1.30;;
20814;SDS011;10568;48.176;16.316;2023-04-25T01:37:49;2.00;;;1.30;;
20814;SDS011;10568;48.176;16.316;2023-04-25T01:40:15;2.53;;;1.40;;
20814;SDS011;10568;48.176;16.316;2023-04-25T01:42:43;1.30;;;1.20;;
20814;SDS011;10568;48.176;16.316;2023-04-25T01:45:10;3.40;;;1.20;;
20814;SDS011;10568;48.176;16.316;2023-04-25T01:47:52;1.67;;;1.00;;
20814;SDS011;10568;48.176;16.316;2023-04-25T01:50:18;1.33;;;1.20;;
20814;SDS011;10568;48.176;16.316;2023-04-25T01:52:44;2.10;;;1.30;;
20814;SDS011;10568;48.176;16.316;2023-04-25T01:55:11;1.20;;;1.10;;
20814;SDS011;10568;48.176;16.316;2023-04-25T01:57:37;1.97;;;1.40;;
20814;SDS011;10568;48.176;16.316;2023-04-25T02:00:03;1.97;;;1.37;;
20814;SDS011;10568;48.176;16.316;2023-04-25T02:02:31;1.70;;;0.93;;
20814;SDS011;10568;48.176;16.316;2023-04-25T02:04:57;2.33;;;1.07;;
20814;SDS011;10568;48.176;16.316;2023-04-25T02:07:23;5.07;;;2.17;;
20814;SDS011;10568;48.176;16.316;2023-04-25T02:09:48;1.60;;;1.30;;
20814;SDS011;10568;48.176;16.316;2023-04-25T02:12:14;1.67;;;1.43;;
20814;SDS011;10568;48.176;16.316;2023-04-25T02:14:40;2.00;;;1.47;;
20814;SDS011;10568;48.176;16.316;2023-04-25T02:17:06;3.27;;;1.47;;
20814;SDS011;10568;48.176;16.316;2023-04-25T02:19:32;1.67;;;1.17;;
20814;SDS011;10568;48.176;16.316;2023-04-25T02:21:57;2.37;;;1.20;;
20814;SDS011;10568;48.176;16.316;2023-04-25T02:24:23;3.30;;;1.50;;
20814;SDS011;10568;48.176;16.316;2023-04-25T02:26:49;1.70;;;1.30;;
20814;SDS011;10568;48.176;16.316;2023-04-25T02:29:15;2.13;;;1.50;;
20814;SDS011;10568;48.176;16.316;2023-04-25T02:31:41;1.40;;;1.17;;
20814;SDS011;10568;48.176;16.316;2023-04-25T02:34:07;1.40;;;1.30;;
20814;SDS011;10568;48.176;16.316;2023-04-25T02:36:32;1.87;;;1.30;;
20814;SDS011;10568;48.176;16.316;2023-04-25T02:39:01;2.33;;;1.63;;
20814;SDS011;10568;48.176;16.316;2023-04-25T02:41:28;1.30;;;1.20;;
20814;SDS011;10568;48.176;16.316;2023-04-25T02:43:54;2.87;;;1.40;;
20814;SDS011;10568;48.176;16.316;2023-04-25T02:46:20;2.60;;;1.57;;
20814;SDS011;10568;48.176;16.316;2023-04-25T02:48:46;2.57;;;1.50;;
20814;SDS011;10568;48.176;16.316;2023-04-25T02:51:12;2.90;;;1.60;;
20814;SDS011;10568;48.176;16.316;2023-04-25T02:53:37;3.90;;;1.33;;
20814;SDS011;10568;48.176;16.316;2023-04-25T02:56:03;2.00;;;1.50;;
20814;SDS011;10568;48.176;16.316;2023-04-25T02:58:44;1.77;;;1.50;;
20814;SDS011;10568;48.176;16.316;2023-04-25T03:01:10;1.67;;;1.30;;
20814;SDS011;10568;48.176;16.316;2023-04-25T03:03:36;1.87;;;1.40;;
20814;SDS011;10568;48.176;16.316;2023-04-25T03:06:01;2.83;;;1.13;;
20814;SDS011;10568;48.176;16.316;2023-04-25T03:08:27;1.97;;;1.27;;
20814;SDS011;10568;48.176;16.316;2023-04-25T03:10:57;1.27;;;1.17;;
20814;SDS011;10568;48.176;16.316;2023-04-25T03:13:23;1.53;;;1.30;;
20814;SDS011;10568;48.176;16.316;2023-04-25T03:15:49;2.27;;;1.47;;
20814;SDS011;10568;48.176;16.316;2023-04-25T03:18:15;1.80;;;1.33;;
20814;SDS011;10568;48.176;16.316;2023-04-25T03:20:41;1.67;;;1.27;;
20814;SDS011;10568;48.176;16.316;2023-04-25T03:23:07;1.73;;;1.40;;
20814;SDS011;10568;48.176;16.316;2023-04-25T03:25:32;2.10;;;1.53;;
20814;SDS011;10568;48.176;16.316;2023-04-25T03:27:58;2.07;;;1.30;;
20814;SDS011;10568;48.176;16.316;2023-04-25T03:30:24;1.90;;;1.60;;
20814;SDS011;10568;48.176;16.316;2023-04-25T03:32:49;1.50;;;1.30;;
20814;SDS011;10568;48.176;16.316;2023-04-25T03:35:15;1.67;;;1.27;;
20814;SDS011;10568;48.176;16.316;2023-04-25T03:37:41;4.03;;;1.50;;
20814;SDS011;10568;48.176;16.316;2023-04-25T03:40:10;3.00;;;1.60;;
20814;SDS011;10568;48.176;16.316;2023-04-25T03:42:36;2.80;;;1.67;;
20814;SDS011;10568;48.176;16.316;2023-04-25T03:45:02;2.27;;;1.47;;
20814;SDS011;10568;48.176;16.316;2023-04-25T03:47:28;2.87;;;1.40;;
20814;SDS011;10568;48.176;16.316;2023-04-25T03:49:54;2.13;;;1.50;;
20814;SDS011;10568;48.176;16.316;2023-04-25T03:52:20;3.83;;;1.63;;
20814;SDS011;10568;48.176;16.316;2023-04-25T03:54:45;2.40;;;1.60;;
20814;SDS011;10568;48.176;16.316;2023-04-25T03:57:11;1.90;;;1.50;;
20814;SDS011;10568;48.176;16.316;2023-04-25T03:59:37;2.60;;;1.50;;
20814;SDS011;10568;48.176;16.316;2023-04-25T04:02:03;2.30;;;1.40;;
20814;SDS011;10568;48.176;16.316;2023-04-25T04:04:29;2.00;;;1.40;;
20814;SDS011;10568;48.176;16.316;2023-04-25T04:06:55;2.00;;;1.40;;
20814;SDS011;10568;48.176;16.316;2023-04-25T04:09:21;1.83;;;1.50;;
20814;SDS011;10568;48.176;16.316;2023-04-25T04:11:46;1.93;;;1.53;;
20814;SDS011;10568;48.176;16.316;2023-04-25T04:14:12;2.83;;;1.60;;
20814;SDS011;10568;48.176;16.316;2023-04-25T04:16:38;1.63;;;1.27;;
20814;SDS011;10568;48.176;16.316;2023-04-25T04:19:04;1.80;;;1.67;;
20814;SDS011;10568;48.176;16.316;2023-04-25T04:21:30;3.83;;;1.40;;
20814;SDS011;10568;48.176;16.316;2023-04-25T04:23:57;1.50;;;1.40;;
20814;SDS011;10568;48.176;16.316;2023-04-25T04:26:25;2.20;;;1.67;;
20814;SDS011;10568;48.176;16.316;2023-04-25T04:28:51;2.50;;;1.67;;
20814;SDS011;10568;48.176;16.316;2023-04-25T04:31:19;1.43;;;1.33;;
20814;SDS011;10568;48.176;16.316;2023-04-25T04:33:48;2.13;;;1.37;;
20814;SDS011;10568;48.176;16.316;2023-04-25T04:36:14;1.97;;;1.33;;
20814;SDS011;10568;48.176;16.316;2023-04-25T04:38:41;1.87;;;1.40;;
20814;SDS011;10568;48.176;16.316;2023-04-25T04:41:07;2.33;;;1.70;;
20814;SDS011;10568;48.176;16.316;2023-04-25T04:43:33;3.17;;;1.50;;
20814;SDS011;10568;48.176;16.316;2023-04-25T04:46:02;8.97;;;1.77;;
20814;SDS011;10568;48.176;16.316;2023-04-25T04:48:31;1.60;;;1.40;;
20814;SDS011;10568;48.176;16.316;2023-04-25T04:51:00;2.30;;;1.60;;
20814;SDS011;10568;48.176;16.316;2023-04-25T04:53:26;4.00;;;1.60;;
20814;SDS011;10568;48.176;16.316;2023-04-25T04:55:52;2.03;;;1.40;;
20814;SDS011;10568;48.176;16.316;2023-04-25T04:58:18;2.70;;;1.60;;
20814;SDS011;10568;48.176;16.316;2023-04-25T05:00:44;2.37;;;1.90;;
20814;SDS011;10568;48.176;16.316;2023-04-25T05:03:10;2.40;;;1.50;;
20814;SDS011;10568;48.176;16.316;2023-04-25T05:05:36;3.13;;;1.67;;
20814;SDS011;10568;48.176;16.316;2023-04-25T05:08:05;2.83;;;1.90;;
20814;SDS011;10568;48.176;16.316;2023-04-25T05:10:31;2.20;;;1.80;;
20814;SDS011;10568;48.176;16.316;2023-04-25T05:12:57;2.63;;;1.80;;
20814;SDS011;10568;48.176;16.316;2023-04-25T05:15:22;1.70;;;1.57;;
20814;SDS011;10568;48.176;16.316;2023-04-25T05:17:48;2.10;;;1.60;;
20814;SDS011;10568;48.176;16.316;2023-04-25T05:20:14;2.53;;;1.57;;
20814;SDS011;10568;48.176;16.316;2023-04-25T05:22:40;2.40;;;1.80;;
20814;SDS011;10568;48.176;16.316;2023-04-25T05:25:07;2.60;;;1.90;;
20814;SDS011;10568;48.176;16.316;2023-04-25T05:27:34;2.00;;;1.80;;
20814;SDS011;10568;48.176;16.316;2023-04-25T05:30:00;4.30;;;1.63;;
20814;SDS011;10568;48.176;16.316;2023-04-25T05:32:26;4.47;;;1.73;;
20814;SDS011;10568;48.176;16.316;2023-04-25T05:34:51;2.50;;;1.67;;
20814;SDS011;10568;48.176;16.316;2023-04-25T05:37:17;2.10;;;1.87;;
20814;SDS011;10568;48.176;16.316;2023-04-25T05:39:43;1.60;;;1.50;;
20814;SDS011;10568;48.176;16.316;2023-04-25T05:42:08;2.77;;;1.97;;
20814;SDS011;10568;48.176;16.316;2023-04-25T05:44:35;2.53;;;1.90;;
20814;SDS011;10568;48.176;16.316;2023-04-25T05:47:01;2.53;;;1.60;;
20814;SDS011;10568;48.176;16.316;2023-04-25T05:49:29;1.80;;;1.50;;
20814;SDS011;10568;48.176;16.316;2023-04-25T05:51:55;3.30;;;1.97;;
20814;SDS011;10568;48.176;16.316;2023-04-25T05:54:20;4.33;;;1.73;;
20814;SDS011;10568;48.176;16.316;2023-04-25T05:56:46;3.13;;;1.73;;
20814;SDS011;10568;48.176;16.316;2023-04-25T05:59:12;2.10;;;1.80;;
20814;SDS011;10568;48.176;16.316;2023-04-25T06:01:37;2.30;;;1.67;;
20814;SDS011;10568;48.176;16.316;2023-04-25T06:04:03;2.53;;;1.90;;
20814;SDS011;10568;48.176;16.316;2023-04-25T06:06:29;1.97;;;1.70;;
20814;SDS011;10568;48.176;16.316;2023-04-25T06:08:55;3.97;;;1.90;;
20814;SDS011;10568;48.176;16.316;2023-04-25T06:11:20;2.20;;;1.57;;
20814;SDS011;10568;48.176;16.316;2023-04-25T06:13:46;1.70;;;1.40;;
20814;SDS011;10568;48.176;16.316;2023-04-25T06:16:12;2.57;;;1.80;;
20814;SDS011;10568;48.176;16.316;2023-04-25T06:18:37;2.20;;;1.60;;
20814;SDS011;10568;48.176;16.316;2023-04-25T06:21:03;2.67;;;1.50;;
20814;SDS011;10568;48.176;16.316;2023-04-25T06:23:29;4.37;;;1.73;;
20814;SDS011;10568;48.176;16.316;2023-04-25T06:25:55;2.87;;;1.70;;
20814;SDS011;10568;48.176;16.316;2023-04-25T06:28:20;2.43;;;1.90;;
20814;SDS011;10568;48.176;16.316;2023-04-25T06:30:47;3.47;;;1.83;;
20814;SDS011;10568;48.176;16.316;2023-04-25T06:33:12;1.50;;;1.40;;
20814;SDS011;10568;48.176;16.316;2023-04-25T06:35:38;2.20;;;1.40;;
20814;SDS011;10568;48.176;16.316;2023-04-25T06:38:04;2.23;;;1.73;;
20814;SDS011;10568;48.176;16.316;2023-04-25T06:40:30;2.37;;;1.57;;
20814;SDS011;10568;48.176;16.316;2023-04-25T06:42:55;1.80;;;1.43;;
20814;SDS011;10568;48.176;16.316;2023-04-25T06:45:21;2.63;;;1.50;;
20814;SDS011;10568;48.176;16.316;2023-04-25T06:47:47;2.90;;;1.67;;
20814;SDS011;10568;48.176;16.316;2023-04-25T06:50:13;1.77;;;1.40;;
20814;SDS011;10568;48.176;16.316;2023-04-25T06:52:38;2.63;;;1.40;;
20814;SDS011;10568;48.176;16.316;2023-04-25T06:55:04;4.07;;;1.60;;
20814;SDS011;10568;48.176;16.316;2023-04-25T06:57:30;2.00;;;1.57;;
20814;SDS011;10568;48.176;16.316;2023-04-25T06:59:56;3.00;;;1.60;;
20814;SDS011;10568;48.176;16.316;2023-04-25T07:02:22;3.97;;;1.70;;
20814;SDS011;10568;48.176;16.316;2023-04-25T07:04:48;2.43;;;1.40;;
20814;SDS011;10568;48.176;16.316;2023-04-25T07:07:13;1.70;;;1.40;;
20814;SDS011;10568;48.176;16.316;2023-04-25T07:09:40;2.53;;;1.70;;
20814;SDS011;10568;48.176;16.316;2023-04-25T07:12:06;2.00;;;1.60;;
20814;SDS011;10568;48.176;16.316;2023-04-25T07:14:32;1.60;;;1.40;;
20814;SDS011;10568;48.176;16.316;2023-04-25T07:16:57;1.90;;;1.67;;
20814;SDS011;10568;48.176;16.316;2023-04-25T07:19:23;3.03;;;1.30;;
20814;SDS011;10568;48.176;16.316;2023-04-25T07:21:51;2.57;;;1.40;;
20814;SDS011;10568;48.176;16.316;2023-04-25T07:24:17;2.40;;;1.53;;
20814;SDS011;10568;48.176;16.316;2023-04-25T07:26:43;2.70;;;1.50;;
20814;SDS011;10568;48.176;16.316;2023-04-25T07:29:09;1.70;;;1.40;;
20814;SDS011;10568;48.176;16.316;2023-04-25T07:31:35;1.83;;;1.40;;
20814;SDS011;10568;48.176;16.316;2023-04-25T07:34:01;2.33;;;1.40;;
20814;SDS011;10568;48.176;16.316;2023-04-25T07:39:35;2.13;;;1.40;;
20814;SDS011;10568;48.176;16.316;2023-04-25T07:42:02;1.67;;;1.33;;
20814;SDS011;10568;48.176;16.316;2023-04-25T07:44:29;2.03;;;1.43;;
20814;SDS011;10568;48.176;16.316;2023-04-25T07:47:04;1.80;;;1.30;;
20814;SDS011;10568;48.176;16.316;2023-04-25T07:49:34;2.20;;;1.53;;
20814;SDS011;10568;48.176;16.316;2023-04-25T07:52:00;2.23;;;1.70;;
20814;SDS011;10568;48.176;16.316;2023-04-25T07:54:26;2.00;;;1.40;;
20814;SDS011;10568;48.176;16.316;2023-04-25T07:56:52;1.93;;;1.53;;
20814;SDS011;10568;48.176;16.316;2023-04-25T07:59:18;1.87;;;1.40;;
20814;SDS011;10568;48.176;16.316;2023-04-25T08:01:44;2.20;;;1.57;;
20814;SDS011;10568;48.176;16.316;2023-04-25T08:04:10;2.63;;;1.50;;
20814;SDS011;10568;48.176;16.316;2023-04-25T08:06:36;4.83;;;1.40;;
20814;SDS011;10568;48.176;16.316;2023-04-25T08:09:02;2.90;;;1.60;;
20814;SDS011;10568;48.176;16.316;2023-04-25T08:11:28;3.23;;;1.83;;
20814;SDS011;10568;48.176;16.316;2023-04-25T08:13:54;1.70;;;1.30;;
20814;SDS011;10568;48.176;16.316;2023-04-25T08:16:20;3.73;;;1.50;;
20814;SDS011;10568;48.176;16.316;2023-04-25T08:18:45;1.33;;;1.10;;
20814;SDS011;10568;48.176;16.316;2023-04-25T08:21:11;1.67;;;1.37;;
20814;SDS011;10568;48.176;16.316;2023-04-25T08:23:37;2.10;;;1.30;;
20814;SDS011;10568;48.176;16.316;2023-04-25T08:26:04;1.90;;;1.37;;
20814;SDS011;10568;48.176;16.316;2023-04-25T08:28:30;1.90;;;1.33;;
20814;SDS011;10568;48.176;16.316;2023-04-25T08:30:56;1.80;;;1.40;;
20814;SDS011;10568;48.176;16.316;2023-04-25T08:33:22;1.37;;;1.27;;
20814;SDS011;10568;48.176;16.316;2023-04-25T08:35:48;2.10;;;1.40;;
20814;SDS011;10568;48.176;16.316;2023-04-25T08:38:13;2.73;;;1.50;;
20814;SDS011;10568;48.176;16.316;2023-04-25T08:40:39;2.27;;;1.30;;
20814;SDS011;10568;48.176;16.316;2023-04-25T08:43:06;3.03;;;1.53;;
20814;SDS011;10568;48.176;16.316;2023-04-25T08:45:38;1.50;;;1.23;;
20814;SDS011;10568;48.176;16.316;2023-04-25T08:48:11;1.70;;;1.17;;
20814;SDS011;10568;48.176;16.316;2023-04-25T08:50:39;1.97;;;1.40;;
20814;SDS011;10568;48.176;16.316;2023-04-25T08:53:10;1.60;;;1.40;;
20814;SDS011;10568;48.176;16.316;2023-04-25T08:55:43;1.30;;;1.20;;
20814;SDS011;10568;48.176;16.316;2023-04-25T08:58:11;1.47;;;1.17;;
20814;SDS011;10568;48.176;16.316;2023-04-25T09:00:38;1.20;;;1.10;;
20814;SDS011;10568;48.176;16.316;2023-04-25T09:03:04;1.97;;;1.47;;
20814;SDS011;10568;48.176;16.316;2023-04-25T09:05:30;1.70;;;1.23;;
20814;SDS011;10568;48.176;16.316;2023-04-25T09:07:58;1.27;;;1.17;;
20814;SDS011;10568;48.176;16.316;2023-04-25T09:10:23;2.03;;;1.40;;
20814;SDS011;10568;48.176;16.316;2023-04-25T09:18:23;2.30;;;1.57;;
20814;SDS011;10568;48.176;16.316;2023-04-25T09:21:07;1.70;;;1.50;;
20814;SDS011;10568;48.176;16.316;2023-04-25T09:23:39;1.37;;;1.20;;
20814;SDS011;10568;48.176;16.316;2023-04-25T09:26:06;1.90;;;1.40;;
20814;SDS011;10568;48.176;16.316;2023-04-25T09:28:33;1.93;;;1.40;;
20814;SDS011;10568;48.176;16.316;2023-04-25T09:31:00;2.10;;;1.00;;
20814;SDS011;10568;48.176;16.316;2023-04-25T09:33:30;2.33;;;1.10;;
20814;SDS011;10568;48.176;16.316;2023-04-25T09:38:31;1.37;;;1.27;;
20814;SDS011;10568;48.176;16.316;2023-04-25T09:40:57;1.60;;;1.43;;
20814;SDS011;10568;48.176;16.316;2023-04-25T09:43:25;2.20;;;1.40;;
20814;SDS011;10568;48.176;16.316;2023-04-25T09:45:53;1.77;;;1.40;;
20814;SDS011;10568;48.176;16.316;2023-04-25T09:48:22;2.30;;;1.60;;
20814;SDS011;10568;48.176;16.316;2023-04-25T09:53:29;1.63;;;1.47;;
20814;SDS011;10568;48.176;16.316;2023-04-25T09:55:55;2.27;;;1.60;;
20814;SDS011;10568;48.176;16.316;2023-04-25T09:58:23;1.70;;;1.03;;
20814;SDS011;10568;48.176;16.316;2023-04-25T10:00:50;1.07;;;0.87;;
20814;SDS011;10568;48.176;16.316;2023-04-25T10:03:20;0.70;;;0.70;;
20814;SDS011;10568;48.176;16.316;2023-04-25T10:05:48;1.13;;;0.70;;
20814;SDS011;10568;48.176;16.316;2023-04-25T10:08:17;1.60;;;0.90;;
20814;SDS011;10568;48.176;16.316;2023-04-25T10:10:43;1.00;;;0.70;;
20814;SDS011;10568;48.176;16.316;2023-04-25T10:13:10;1.10;;;0.63;;
20814;SDS011;10568;48.176;16.316;2023-04-25T10:15:39;1.10;;;0.90;;
20814;SDS011;10568;48.176;16.316;2023-04-25T10:18:06;1.50;;;0.80;;
20814;SDS011;10568;48.176;16.316;2023-04-25T10:20:32;0.70;;;0.70;;
20814;SDS011;10568;48.176;16.316;2023-04-25T10:23:01;2.87;;;0.90;;
20814;SDS011;10568;48.176;16.316;2023-04-25T10:25:33;0.60;;;0.60;;
20814;SDS011;10568;48.176;16.316;2023-04-25T10:28:00;0.90;;;0.70;;
20814;SDS011;10568;48.176;16.316;2023-04-25T10:30:27;1.63;;;0.43;;
20814;SDS011;10568;48.176;16.316;2023-04-25T10:32:54;1.50;;;0.63;;
20814;SDS011;10568;48.176;16.316;2023-04-25T10:35:24;0.43;;;0.43;;
20814;SDS011;10568;48.176;16.316;2023-04-25T10:38:05;0.50;;;0.50;;
20814;SDS011;10568;48.176;16.316;2023-04-25T10:40:34;0.60;;;0.43;;
20814;SDS011;10568;48.176;16.316;2023-04-25T10:46:02;1.00;;;0.50;;
20814;SDS011;10568;48.176;16.316;2023-04-25T10:48:48;4.83;;;0.70;;
20814;SDS011;10568;48.176;16.316;2023-04-25T10:51:23;0.67;;;0.60;;
20814;SDS011;10568;48.176;16.316;2023-04-25T10:54:03;1.90;;;0.70;;
20814;SDS011;10568;48.176;16.316;2023-04-25T10:56:31;1.10;;;0.60;;
20814;SDS011;10568;48.176;16.316;2023-04-25T10:59:11;0.80;;;0.67;;
20814;SDS011;10568;48.176;16.316;2023-04-25T11:04:32;1.53;;;0.73;;
20814;SDS011;10568;48.176;16.316;2023-04-25T11:09:38;2.63;;;0.90;;
20814;SDS011;10568;48.176;16.316;2023-04-25T11:12:06;1.40;;;1.00;;
20814;SDS011;10568;48.176;16.316;2023-04-25T11:14:33;1.03;;;0.90;;
20814;SDS011;10568;48.176;16.316;2023-04-25T11:16:59;1.00;;;0.83;;
20814;SDS011;10568;48.176;16.316;2023-04-25T11:19:26;1.43;;;1.00;;
20814;SDS011;10568;48.176;16.316;2023-04-25T11:21:56;1.10;;;1.00;;
20814;SDS011;10568;48.176;16.316;2023-04-25T11:24:29;2.00;;;1.10;;
20814;SDS011;10568;48.176;16.316;2023-04-25T11:26:59;1.20;;;1.10;;
20814;SDS011;10568;48.176;16.316;2023-04-25T11:29:27;1.50;;;1.10;;
20814;SDS011;10568;48.176;16.316;2023-04-25T11:31:54;1.63;;;1.00;;
20814;SDS011;10568;48.176;16.316;2023-04-25T11:34:24;1.50;;;1.00;;
20814;SDS011;10568;48.176;16.316;2023-04-25T11:36:50;1.97;;;1.00;;
20814;SDS011;10568;48.176;16.316;2023-04-25T11:39:20;1.10;;;1.00;;
20814;SDS011;10568;48.176;16.316;2023-04-25T11:41:46;1.33;;;1.13;;
20814;SDS011;10568;48.176;16.316;2023-04-25T11:44:15;1.03;;;0.77;;
20814;SDS011;10568;48.176;16.316;2023-04-25T11:46:42;1.07;;;0.70;;
20814;SDS011;10568;48.176;16.316;2023-04-25T11:49:08;3.93;;;1.23;;
20814;SDS011;10568;48.176;16.316;2023-04-25T11:51:52;1.77;;;0.80;;
20814;SDS011;10568;48.176;16.316;2023-04-25T11:54:18;1.23;;;0.60;;
20814;SDS011;10568;48.176;16.316;2023-04-25T11:56:44;0.90;;;0.70;;
20814;SDS011;10568;48.176;16.316;2023-04-25T11:59:10;0.60;;;0.60;;
20814;SDS011;10568;48.176;16.316;2023-04-25T12:01:47;0.97;;;0.87;;
20814;SDS011;10568;48.176;16.316;2023-04-25T12:06:40;2.20;;;0.70;;
20814;SDS011;10568;48.176;16.316;2023-04-25T12:09:07;0.80;;;0.80;;
20814;SDS011;10568;48.176;16.316;2023-04-25T12:11:43;1.00;;;0.83;;
20814;SDS011;10568;48.176;16.316;2023-04-25T12:14:11;0.70;;;0.70;;
20814;SDS011;10568;48.176;16.316;2023-04-25T12:16:44;0.60;;;0.60;;
20814;SDS011;10568;48.176;16.316;2023-04-25T12:19:17;1.33;;;0.77;;
20814;SDS011;10568;48.176;16.316;2023-04-25T12:21:44;1.10;;;1.00;;
20814;SDS011;10568;48.176;16.316;2023-04-25T12:26:50;2.10;;;0.90;;
20814;SDS011;10568;48.176;16.316;2023-04-25T12:29:21;2.83;;;0.80;;
20814;SDS011;10568;48.176;16.316;2023-04-25T12:31:49;1.30;;;0.83;;
20814;SDS011;10568;48.176;16.316;2023-04-25T12:34:16;1.30;;;0.73;;
20814;SDS011;10568;48.176;16.316;2023-04-25T12:36:45;0.93;;;0.70;;
20814;SDS011;10568;48.176;16.316;2023-04-25T12:39:18;1.03;;;0.70;;
20814;SDS011;10568;48.176;16.316;2023-04-25T12:41:46;1.30;;;0.70;;
20814;SDS011;10568;48.176;16.316;2023-04-25T12:44:13;0.70;;;0.57;;
20814;SDS011;10568;48.176;16.316;2023-04-25T12:46:39;0.70;;;0.53;;
20814;SDS011;10568;48.176;16.316;2023-04-25T12:49:06;0.70;;;0.67;;
20814;SDS011;10568;48.176;16.316;2023-04-25T12:51:33;0.87;;;0.50;;
20814;SDS011;10568;48.176;16.316;2023-04-25T12:54:00;0.90;;;0.70;;
20814;SDS011;10568;48.176;16.316;2023-04-25T12:56:27;1.00;;;0.73;;
20814;SDS011;10568;48.176;16.316;2023-04-25T12:58:54;0.50;;;0.50;;
20814;SDS011;10568;48.176;16.316;2023-04-25T13:01:20;0.77;;;0.60;;
20814;SDS011;10568;48.176;16.316;2023-04-25T13:03:46;0.80;;;0.60;;
20814;SDS011;10568;48.176;16.316;2023-04-25T13:06:13;1.60;;;0.60;;
20814;SDS011;10568;48.176;16.316;2023-04-25T13:08:43;0.90;;;0.60;;
20814;SDS011;10568;48.176;16.316;2023-04-25T13:11:09;1.13;;;0.50;;
20814;SDS011;10568;48.176;16.316;2023-04-25T13:13:35;0.40;;;0.40;;
20814;SDS011;10568;48.176;16.316;2023-04-25T13:16:01;2.73;;;0.60;;
20814;SDS011;10568;48.176;16.316;2023-04-25T13:18:28;0.87;;;0.50;;
20814;SDS011;10568;48.176;16.316;2023-04-25T13:20:55;0.70;;;0.40;;
20814;SDS011;10568;48.176;16.316;2023-04-25T13:23:22;0.40;;;0.40;;
20814;SDS011;10568;48.176;16.316;2023-04-25T13:25:48;0.63;;;0.40;;
20814;SDS011;10568;48.176;16.316;2023-04-25T13:28:14;1.30;;;0.70;;
20814;SDS011;10568;48.176;16.316;2023-04-25T13:30:41;0.40;;;0.40;;
20814;SDS011;10568;48.176;16.316;2023-04-25T13:33:07;0.50;;;0.40;;
20814;SDS011;10568;48.176;16.316;2023-04-25T13:35:34;0.43;;;0.43;;
20814;SDS011;10568;48.176;16.316;2023-04-25T13:38:00;1.10;;;0.47;;
20814;SDS011;10568;48.176;16.316;2023-04-25T13:40:27;0.37;;;0.37;;
20814;SDS011;10568;48.176;16.316;2023-04-25T13:42:53;0.70;;;0.50;;
20814;SDS011;10568;48.176;16.316;2023-04-25T13:45:19;0.87;;;0.50;;
20814;SDS011;10568;48.176;16.316;2023-04-25T13:47:45;0.33;;;0.33;;
20814;SDS011;10568;48.176;16.316;2023-04-25T13:50:11;1.10;;;0.80;;
20814;SDS011;10568;48.176;16.316;2023-04-25T13:52:38;1.03;;;0.70;;
20814;SDS011;10568;48.176;16.316;2023-04-25T13:55:04;0.80;;;0.47;;
20814;SDS011;10568;48.176;16.316;2023-04-25T13:57:32;0.80;;;0.50;;
20814;SDS011;10568;48.176;16.316;2023-04-25T13:59:58;0.90;;;0.60;;
20814;SDS011;10568;48.176;16.316;2023-04-25T14:02:24;0.40;;;0.40;;
20814;SDS011;10568;48.176;16.316;2023-04-25T14:04:51;0.63;;;0.40;;
20814;SDS011;10568;48.176;16.316;2023-04-25T14:07:16;0.40;;;0.40;;
20814;SDS011;10568;48.176;16.316;2023-04-25T14:09:46;0.50;;;0.50;;
20814;SDS011;10568;48.176;16.316;2023-04-25T14:12:11;1.20;;;0.40;;
20814;SDS011;10568;48.176;16.316;2023-04-25T14:14:37;0.30;;;0.20;;
20814;SDS011;10568;48.176;16.316;2023-04-25T14:17:03;0.30;;;0.30;;
20814;SDS011;10568;48.176;16.316;2023-04-25T14:19:30;0.57;;;0.47;;
20814;SDS011;10568;48.176;16.316;2023-04-25T14:21:55;0.77;;;0.53;;
20814;SDS011;10568;48.176;16.316;2023-04-25T14:24:21;1.13;;;0.50;;
20814;SDS011;10568;48.176;16.316;2023-04-25T14:26:47;0.97;;;0.60;;
20814;SDS011;10568;48.176;16.316;2023-04-25T14:29:13;0.63;;;0.50;;
20814;SDS011;10568;48.176;16.316;2023-04-25T14:31:39;0.60;;;0.40;;
20814;SDS011;10568;48.176;16.316;2023-04-25T14:34:06;0.57;;;0.53;;
20814;SDS011;10568;48.176;16.316;2023-04-25T14:36:32;0.53;;;0.30;;
20814;SDS011;10568;48.176;16.316;2023-04-25T14:38:59;0.40;;;0.40;;
20814;SDS011;10568;48.176;16.316;2023-04-25T14:41:25;0.40;;;0.40;;
20814;SDS011;10568;48.176;16.316;2023-04-25T14:43:52;2.53;;;0.60;;
20814;SDS011;10568;48.176;16.316;2023-04-25T14:46:19;0.40;;;0.40;;
20814;SDS011;10568;48.176;16.316;2023-04-25T14:48:45;0.60;;;0.50;;
20814;SDS011;10568;48.176;16.316;2023-04-25T14:51:12;0.67;;;0.60;;
20814;SDS011;10568;48.176;16.316;2023-04-25T14:53:40;0.60;;;0.60;;
20814;SDS011;10568;48.176;16.316;2023-04-25T14:56:06;0.50;;;0.40;;
20814;SDS011;10568;48.176;16.316;2023-04-25T14:58:32;0.57;;;0.50;;
20814;SDS011;10568;48.176;16.316;2023-04-25T15:00:59;1.27;;;0.40;;
20814;SDS011;10568;48.176;16.316;2023-04-25T15:03:25;0.50;;;0.50;;